M Y Suncoco — SY7908 — position and weather

sailwx.info

Track history (hours):
 
Tides and Currents Weather Stations Pressure Air Temp Water Temp Dewpoint Dewpoint Depression Visibility Wind Speed Wind Dir Waves Ship Positions

M Y Suncoco

Last reported at 2017-Jun-23 15:30 UTC. Time now 2017-Jun-23 15:34 UTC.
Position N 37°23' E 025°14'.

Length 32 m; draft 2.8 m.

Type: Other ship. MMSI: 239112700.

Date/timePositionNaut miles runAvg speedWind from/ knotsBaromVisibWave heightAir tempDewpointWater temp
2017-Jun-23 15:30N 37°23' E 025°14'0 0.0
2017-Jun-23 15:00N 37°23' E 025°14'0 0.0
2017-Jun-23 14:00N 37°23' E 025°14'1 1.4
2017-Jun-23 13:30N 37°22' E 025°15'1 2.4
2017-Jun-23 13:00N 37°23' E 025°16'0 0.0
2017-Jun-23 12:30N 37°23' E 025°16'0 0.0
2017-Jun-23 12:00N 37°23' E 025°16'0 0.0
2017-Jun-23 11:30N 37°23' E 025°16'0 0.0
2017-Jun-23 11:00N 37°23' E 025°16'0 0.0
2017-Jun-23 10:30N 37°23' E 025°16'4 8.1
2017-Jun-23 10:00N 37°22' E 025°11'710.8
2017-Jun-23 09:21N 37°22' E 025°02'410.8
2017-Jun-23 09:00N 37°22' E 024°58'5 9.3
2017-Jun-23 08:30N 37°23' E 024°52'1 2.1
2017-Jun-23 07:55N 37°24' E 024°53'0 0.0
2017-Jun-23 07:30N 37°24' E 024°53'0 0.0
2017-Jun-23 07:00N 37°24' E 024°53'0 0.0
2017-Jun-23 06:29N 37°24' E 024°53'0 0.0
2017-Jun-23 06:00N 37°24' E 024°53'0 0.0
2017-Jun-23 05:30N 37°24' E 024°53'0 0.0
2017-Jun-23 05:00N 37°24' E 024°53'0 0.0
2017-Jun-23 04:26N 37°24' E 024°53'0 0.0
2017-Jun-23 04:00N 37°24' E 024°53'0 0.0
2017-Jun-23 03:30N 37°24' E 024°53'0 0.0
2017-Jun-23 03:00N 37°24' E 024°53'0 0.0
2017-Jun-23 02:30N 37°24' E 024°53'0 0.0
2017-Jun-23 01:59N 37°24' E 024°53'0 0.0
2017-Jun-23 01:30N 37°24' E 024°53'0 0.0
2017-Jun-23 01:00N 37°24' E 024°53'0 0.0
2017-Jun-23 00:30N 37°24' E 024°53'0 0.0
2017-Jun-23 00:00N 37°24' E 024°53'0 0.0
2017-Jun-22 23:30N 37°24' E 024°53'0 0.0
2017-Jun-22 23:00N 37°24' E 024°53'0 0.0
2017-Jun-22 22:30N 37°24' E 024°53'0 0.0
2017-Jun-22 21:57N 37°24' E 024°53'0 0.0
2017-Jun-22 21:29N 37°24' E 024°53'0 0.0
2017-Jun-22 20:58N 37°24' E 024°53'0 0.0
2017-Jun-22 20:30N 37°24' E 024°53'0 0.0
2017-Jun-22 20:00N 37°24' E 024°53'0 0.0
2017-Jun-22 19:30N 37°24' E 024°53'0 0.0
2017-Jun-22 19:00N 37°24' E 024°53'0 0.0
2017-Jun-22 18:30N 37°24' E 024°53'0 0.0
2017-Jun-22 18:00N 37°24' E 024°53'0 0.0
2017-Jun-22 17:30N 37°24' E 024°53'0 0.0
2017-Jun-22 17:00N 37°24' E 024°53'0 0.0
2017-Jun-22 16:30N 37°24' E 024°53'0 0.0
2017-Jun-22 16:00N 37°24' E 024°53'0 0.0
2017-Jun-22 15:30N 37°24' E 024°53'0 0.0
2017-Jun-22 15:00N 37°24' E 024°53'2 4.8
2017-Jun-22 14:30N 37°22' E 024°50'  
2017-Jun-20 08:45N 37°46' E 023°48'311.0
2017-Jun-20 08:30N 37°48' E 023°45'611.1
2017-Jun-20 08:00N 37°53' E 023°42'2 3.9
2017-Jun-20 07:30N 37°55' E 023°42'0 0.0
2017-Jun-18 16:38N 37°55' E 023°42'0 0.0
2017-Jun-18 16:31N 37°55' E 023°42'4 7.2
2017-Jun-18 16:01N 37°52' E 023°39'611.4
2017-Jun-18 15:30N 37°47' E 023°37'611.2
2017-Jun-18 15:01N 37°41' E 023°35'19 9.7
2017-Jun-18 13:06N 37°24' E 023°26'110.8
2017-Jun-18 13:00N 37°24' E 023°25'  
Track history (hours):
 
Tides and Currents Weather Stations Pressure Air Temp Water Temp Dewpoint Dewpoint Depression Visibility Wind Speed Wind Dir Waves Ship Positions

M Y Suncoco

Last reported at 2017-Jun-23 15:30 UTC. Time now 2017-Jun-23 15:34 UTC.
Position N 37°23' E 025°14'.

Length 32 m; draft 2.8 m.

Type: Other ship. MMSI: 239112700.

Date/timePositionNaut miles runAvg speedWind from/ knotsBaromVisibWave heightAir tempDewpointWater temp
2017-Jun-23 15:30N 37°23' E 025°14'0 0.0
2017-Jun-23 15:00N 37°23' E 025°14'0 0.0
2017-Jun-23 14:00N 37°23' E 025°14'1 1.4
2017-Jun-23 13:30N 37°22' E 025°15'1 2.4
2017-Jun-23 13:00N 37°23' E 025°16'0 0.0
2017-Jun-23 12:30N 37°23' E 025°16'0 0.0
2017-Jun-23 12:00N 37°23' E 025°16'0 0.0
2017-Jun-23 11:30N 37°23' E 025°16'0 0.0
2017-Jun-23 11:00N 37°23' E 025°16'0 0.0
2017-Jun-23 10:30N 37°23' E 025°16'4 8.1
2017-Jun-23 10:00N 37°22' E 025°11'710.8
2017-Jun-23 09:21N 37°22' E 025°02'410.8
2017-Jun-23 09:00N 37°22' E 024°58'5 9.3
2017-Jun-23 08:30N 37°23' E 024°52'1 2.1
2017-Jun-23 07:55N 37°24' E 024°53'0 0.0
2017-Jun-23 07:30N 37°24' E 024°53'0 0.0
2017-Jun-23 07:00N 37°24' E 024°53'0 0.0
2017-Jun-23 06:29N 37°24' E 024°53'0 0.0
2017-Jun-23 06:00N 37°24' E 024°53'0 0.0
2017-Jun-23 05:30N 37°24' E 024°53'0 0.0
2017-Jun-23 05:00N 37°24' E 024°53'0 0.0
2017-Jun-23 04:26N 37°24' E 024°53'0 0.0
2017-Jun-23 04:00N 37°24' E 024°53'0 0.0
2017-Jun-23 03:30N 37°24' E 024°53'0 0.0
2017-Jun-23 03:00N 37°24' E 024°53'0 0.0
2017-Jun-23 02:30N 37°24' E 024°53'0 0.0
2017-Jun-23 01:59N 37°24' E 024°53'0 0.0
2017-Jun-23 01:30N 37°24' E 024°53'0 0.0
2017-Jun-23 01:00N 37°24' E 024°53'0 0.0
2017-Jun-23 00:30N 37°24' E 024°53'0 0.0
2017-Jun-23 00:00N 37°24' E 024°53'0 0.0
2017-Jun-22 23:30N 37°24' E 024°53'0 0.0
2017-Jun-22 23:00N 37°24' E 024°53'0 0.0
2017-Jun-22 22:30N 37°24' E 024°53'0 0.0
2017-Jun-22 21:57N 37°24' E 024°53'0 0.0
2017-Jun-22 21:29N 37°24' E 024°53'0 0.0
2017-Jun-22 20:58N 37°24' E 024°53'0 0.0
2017-Jun-22 20:30N 37°24' E 024°53'0 0.0
2017-Jun-22 20:00N 37°24' E 024°53'0 0.0
2017-Jun-22 19:30N 37°24' E 024°53'0 0.0
2017-Jun-22 19:00N 37°24' E 024°53'0 0.0
2017-Jun-22 18:30N 37°24' E 024°53'0 0.0
2017-Jun-22 18:00N 37°24' E 024°53'0 0.0
2017-Jun-22 17:30N 37°24' E 024°53'0 0.0
2017-Jun-22 17:00N 37°24' E 024°53'0 0.0
2017-Jun-22 16:30N 37°24' E 024°53'0 0.0
2017-Jun-22 16:00N 37°24' E 024°53'0 0.0
2017-Jun-22 15:30N 37°24' E 024°53'0 0.0
2017-Jun-22 15:00N 37°24' E 024°53'2 4.8
2017-Jun-22 14:30N 37°22' E 024°50'  
2017-Jun-20 08:45N 37°46' E 023°48'311.0
2017-Jun-20 08:30N 37°48' E 023°45'611.1
2017-Jun-20 08:00N 37°53' E 023°42'2 3.9
2017-Jun-20 07:30N 37°55' E 023°42'0 0.0
2017-Jun-18 16:38N 37°55' E 023°42'0 0.0
2017-Jun-18 16:31N 37°55' E 023°42'4 7.2
2017-Jun-18 16:01N 37°52' E 023°39'611.4
2017-Jun-18 15:30N 37°47' E 023°37'611.2
2017-Jun-18 15:01N 37°41' E 023°35'19 9.7
2017-Jun-18 13:06N 37°24' E 023°26'110.8
2017-Jun-18 13:00N 37°24' E 023°25'  

Dump ship's entire track history